Time;durP1;ratioP1;P1;durP2;ratioP2;P2;SDS_P1;SDS_P2;PMS_P1;PMS_P2;Temp;Humidity;BMP_temperature;BMP_pressure;BME280_temperature;BME280_humidity;BME280_pressure;Samples;Min_cycle;Max_cycle;Signal;HPM_P1;HPM_P2
2023/12/24 00:02:05;;;;;;;;;;;;;;;;;;5116497;28;19923;-43
2023/12/24 00:04:31;;;;;;;;;;;;;;;;;;5116558;28;19977;-41
2023/12/24 00:06:57;;;;;;;;;;;;;;;;;;5116470;28;19932;-42
2023/12/24 00:09:23;;;;;;;;;;;;;;;;;;5116182;27;20444;-42
2023/12/24 00:11:50;;;;;;;;;;;;;;;;;;5116528;28;20428;-44
2023/12/24 00:14:16;;;;;;;;;;;;;;;;;;5116198;28;20368;-41
2023/12/24 00:16:42;;;;;;;;;;;;;;;;;;5115884;28;19924;-41
2023/12/24 00:19:08;;;;;;;;;;;;;;;;;;5116299;28;19928;-43
2023/12/24 00:21:35;;;;;;;;;;;;;;;;;;5115828;28;19950;-41
2023/12/24 00:24:01;;;;;;;;;;;;;;;;;;5115937;27;19928;-41
2023/12/24 00:26:27;;;;;;;;;;;;;;;;;;5116222;28;19924;-42
2023/12/24 00:28:53;;;;;;;;;;;;;;;;;;5115485;28;20011;-43
2023/12/24 00:31:19;;;;;;;;;;;;;;;;;;5115921;28;19931;-42
2023/12/24 00:33:46;;;;;;;;;;;;;;;;;;5116112;28;19949;-41
2023/12/24 00:36:12;;;;;;;;;;;;;;;;;;5115910;28;20770;-42
2023/12/24 00:38:38;;;;;;;;;;;;;;;;;;5115935;28;20360;-42
2023/12/24 00:41:04;;;;;;;;;;;;;;;;;;5114881;28;20325;-41
2023/12/24 00:43:30;;;;;;;;;;;;;;;;;;5115912;28;19931;-42
2023/12/24 00:45:56;;;;;;;;;;;;;;;;;;5115345;28;20060;-44
2023/12/24 00:48:23;;;;;;;;;;;;;;;;;;5115737;28;19980;-42
2023/12/24 00:50:49;;;;;;;;;;;;;;;;;;5115389;28;19928;-41
2023/12/24 00:53:15;;;;;;;;;;;;;;;;;;5115591;28;19924;-41
2023/12/24 00:55:42;;;;;;;;;;;;;;;;;;5115042;28;19924;-42
2023/12/24 00:58:08;;;;;;;;;;;;;;;;;;5115228;28;19924;-41
2023/12/24 01:00:34;;;;;;;;;;;;;;;;;;5115532;28;19928;-41
2023/12/24 01:03:01;;;;;;;;;;;;;;;;;;5115532;28;19947;-42
2023/12/24 01:05:27;;;;;;;;;;;;;;;;;;5115459;28;20359;-43
2023/12/24 01:07:53;;;;;;;;;;;;;;;;;;5115517;28;19924;-43
2023/12/24 01:10:19;;;;;;;;;;;;;;;;;;5115101;28;19928;-42
2023/12/24 01:12:45;;;;;;;;;;;;;;;;;;5115217;28;19932;-44
2023/12/24 01:15:12;;;;;;;;;;;;;;;;;;5114444;28;19992;-42
2023/12/24 01:17:38;;;;;;;;;;;;;;;;;;5114892;28;19924;-43
2023/12/24 01:20:04;;;;;;;;;;;;;;;;;;5114853;28;19924;-42
2023/12/24 01:22:30;;;;;;;;;;;;;;;;;;5114998;28;19930;-41
2023/12/24 01:24:56;;;;;;;;;;;;;;;;;;5031468;28;19964;-42
2023/12/24 01:27:23;;;;;;;;;;;;;;;;;;5031740;28;19925;-42
2023/12/24 01:29:50;;;;;;;;;;;;;;;;;;5030547;28;20071;-43
2023/12/24 01:32:16;;;;;;;;;;;;;;;;;;5030943;28;19975;-43
2023/12/24 01:34:42;;;;;;;;;;;;;;;;;;5031112;28;19925;-42
2023/12/24 01:37:08;;;;;;;;;;;;;;;;;;5030667;28;19972;-41
2023/12/24 01:39:35;;;;;;;;;;;;;;;;;;5030862;28;19988;-44
2023/12/24 01:42:01;;;;;;;;;;;;;;;;;;5034724;28;20021;-44
2023/12/24 01:44:27;;;;;;;;;;;;;;;;;;5113865;28;20023;-42
2023/12/24 01:46:53;;;;;;;;;;;;;;;;;;5114069;28;20313;-41
2023/12/24 01:49:19;;;;;;;;;;;;;;;;;;5114125;28;19931;-44
2023/12/24 01:51:45;;;;;;;;;;;;;;;;;;5113671;28;19931;-43
2023/12/24 01:54:12;;;;;;;;;;;;;;;;;;5114361;28;19923;-41
2023/12/24 01:56:44;;;;;;;;;;;;;;;;;;5114133;28;20329;-42
2023/12/24 01:59:10;;;;;;;;;;;;;;;;;;5114056;28;19935;-44
2023/12/24 02:01:36;;;;;;;;;;;;;;;;;;5114341;28;19924;-42
2023/12/24 02:04:03;;;;;;;;;;;;;;;;;;5114369;28;20291;-44
2023/12/24 02:06:29;;;;;;;;;;;;;;;;;;5114362;28;20326;-43
2023/12/24 02:08:55;;;;;;;;;;;;;;;;;;5113797;28;19924;-42
2023/12/24 02:11:21;;;;;;;;;;;;;;;;;;5114005;28;20371;-41
2023/12/24 02:13:47;;;;;;;;;;;;;;;;;;5113911;28;19931;-42
2023/12/24 02:16:13;;;;;;;;;;;;;;;;;;5113753;28;19924;-42
2023/12/24 02:18:40;;;;;;;;;;;;;;;;;;5113736;28;20314;-43
2023/12/24 02:21:06;;;;;;;;;;;;;;;;;;5113803;28;19924;-43
2023/12/24 02:23:32;;;;;;;;;;;;;;;;;;5114021;28;20415;-42
2023/12/24 02:25:58;;;;;;;;;;;;;;;;;;5113460;28;19930;-46
2023/12/24 02:28:25;;;;;;;;;;;;;;;;;;5113897;28;19927;-42
2023/12/24 02:30:51;;;;;;;;;;;;;;;;;;5113387;28;19977;-41
2023/12/24 02:33:18;;;;;;;;;;;;;;;;;;5113551;28;19924;-43
2023/12/24 02:35:44;;;;;;;;;;;;;;;;;;5113780;28;19935;-44
2023/12/24 02:38:10;;;;;;;;;;;;;;;;;;5113639;28;19935;-42
2023/12/24 02:40:36;;;;;;;;;;;;;;;;;;5113423;28;19972;-45
2023/12/24 02:43:02;;;;;;;;;;;;;;;;;;5113472;28;19924;-43
2023/12/24 02:45:29;;;;;;;;;;;;;;;;;;5113157;28;19924;-42
2023/12/24 02:47:55;;;;;;;;;;;;;;;;;;5113694;28;19928;-41
2023/12/24 02:50:21;;;;;;;;;;;;;;;;;;5113432;28;19924;-43
2023/12/24 02:52:48;;;;;;;;;;;;;;;;;;5113350;28;19924;-41
2023/12/24 02:55:14;;;;;;;;;;;;;;;;;;5113098;28;19931;-42
2023/12/24 02:57:40;;;;;;;;;;;;;;;;;;5113036;28;19988;-41
2023/12/24 03:00:08;;;;;;;;;;;;;;;;;;5112522;28;19928;-42
2023/12/24 03:02:34;;;;;;;;;;;;;;;;;;5113692;28;19969;-43
2023/12/24 03:05:00;;;;;;;;;;;;;;;;;;5117510;28;20018;-41
2023/12/24 03:07:27;;;;;;;;;;;;;;;;;;5117803;28;19932;-42
2023/12/24 03:09:53;;;;;;;;;;;;;;;;;;5116859;28;19923;-42
2023/12/24 03:12:19;;;;;;;;;;;;;;;;;;5117337;28;19924;-41
2023/12/24 03:14:45;;;;;;;;;;;;;;;;;;5117180;27;19980;-42
2023/12/24 03:17:11;;;;;;;;;;;;;;;;;;5117357;28;19974;-41
2023/12/24 03:19:37;;;;;;;;;;;;;;;;;;5117438;28;20390;-42
2023/12/24 03:22:03;;;;;;;;;;;;;;;;;;5117434;28;19963;-43
2023/12/24 03:24:30;;;;;;;;;;;;;;;;;;5117336;28;19924;-42
2023/12/24 03:26:56;;;;;;;;;;;;;;;;;;5117018;28;19989;-41
2023/12/24 03:29:22;;;;;;;;;;;;;;;;;;5115119;28;19924;-43
2023/12/24 03:31:48;;;;;;;;;;;;;;;;;;5117380;27;19923;-44
2023/12/24 03:34:14;;;;;;;;;;;;;;;;;;5116576;27;19924;-41
2023/12/24 03:36:41;;;;;;;;;;;;;;;;;;5116617;28;19955;-42
2023/12/24 03:39:07;;;;;;;;;;;;;;;;;;5116064;27;19924;-44
2023/12/24 03:41:33;;;;;;;;;;;;;;;;;;5116171;28;19959;-45
2023/12/24 03:43:59;;;;;;;;;;;;;;;;;;5116332;28;20248;-41
2023/12/24 03:46:27;;;;;;;;;;;;;;;;;;5116206;27;19923;-41
2023/12/24 03:48:53;;;;;;;;;;;;;;;;;;5116538;28;19923;-43
2023/12/24 03:51:20;;;;;;;;;;;;;;;;;;5116442;28;19924;-44
2023/12/24 03:53:46;;;;;;;;;;;;;;;;;;5116756;28;19923;-42
2023/12/24 03:56:12;;;;;;;;;;;;;;;;;;5116861;28;19924;-40
2023/12/24 03:58:38;;;;;;;;;;;;;;;;;;5116695;28;19934;-43
2023/12/24 04:01:05;;;;;;;;;;;;;;;;;;5116574;28;19924;-41
2023/12/24 04:03:31;;;;;;;;;;;;;;;;;;5116825;28;20038;-42
2023/12/24 04:05:57;;;;;;;;;;;;;;;;;;5116716;28;19960;-42
2023/12/24 04:08:23;;;;;;;;;;;;;;;;;;5116033;28;20303;-41
2023/12/24 04:10:49;;;;;;;;;;;;;;;;;;5115797;28;19976;-43
2023/12/24 04:13:16;;;;;;;;;;;;;;;;;;5116107;28;19927;-46
2023/12/24 04:15:42;;;;;;;;;;;;;;;;;;5113749;28;19924;-42
2023/12/24 04:18:08;;;;;;;;;;;;;;;;;;5115724;28;19928;-42
2023/12/24 04:20:34;;;;;;;;;;;;;;;;;;5115380;28;19928;-42
2023/12/24 04:23:00;;;;;;;;;;;;;;;;;;5115388;28;19923;-43
2023/12/24 04:25:27;;;;;;;;;;;;;;;;;;5115543;28;19924;-44
2023/12/24 04:27:53;;;;;;;;;;;;;;;;;;5115615;28;19924;-43
2023/12/24 04:30:19;;;;;;;;;;;;;;;;;;5115284;28;19970;-41
2023/12/24 04:32:45;;;;;;;;;;;;;;;;;;5115471;28;19928;-42
2023/12/24 04:35:11;;;;;;;;;;;;;;;;;;5114358;28;19934;-44
2023/12/24 04:37:38;;;;;;;;;;;;;;;;;;5115346;28;19928;-42
2023/12/24 04:40:04;;;;;;;;;;;;;;;;;;5115271;28;20450;-42
2023/12/24 04:42:30;;;;;;;;;;;;;;;;;;5115368;28;19980;-41
2023/12/24 04:44:57;;;;;;;;;;;;;;;;;;5115190;28;19924;-41
2023/12/24 04:47:23;;;;;;;;;;;;;;;;;;5115835;28;19924;-43
2023/12/24 04:49:49;;;;;;;;;;;;;;;;;;5115587;28;19923;-45
2023/12/24 04:52:15;;;;;;;;;;;;;;;;;;5115411;28;19924;-42
2023/12/24 04:54:41;;;;;;;;;;;;;;;;;;5115674;28;20186;-41
2023/12/24 04:57:07;;;;;;;;;;;;;;;;;;5115477;28;20007;-42
2023/12/24 04:59:34;;;;;;;;;;;;;;;;;;5115036;28;20137;-41
2023/12/24 05:02:00;;;;;;;;;;;;;;;;;;5114522;28;20369;-41
2023/12/24 05:04:27;;;;;;;;;;;;;;;;;;5115165;28;19924;-42
2023/12/24 05:06:53;;;;;;;;;;;;;;;;;;5114655;28;19931;-41
2023/12/24 05:09:19;;;;;;;;;;;;;;;;;;5114500;28;19924;-42
2023/12/24 05:11:45;;;;;;;;;;;;;;;;;;5114829;27;20051;-43
2023/12/24 05:14:11;;;;;;;;;;;;;;;;;;5114433;28;19924;-41
2023/12/24 05:16:38;;;;;;;;;;;;;;;;;;5114618;28;19934;-41
2023/12/24 05:19:04;;;;;;;;;;;;;;;;;;5114628;28;19924;-42
2023/12/24 05:21:30;;;;;;;;;;;;;;;;;;5114561;28;19927;-41
2023/12/24 05:23:56;;;;;;;;;;;;;;;;;;5115172;28;19924;-41
2023/12/24 05:26:24;;;;;;;;;;;;;;;;;;5114496;28;20201;-41
2023/12/24 05:28:50;;;;;;;;;;;;;;;;;;5115094;28;20390;-41
2023/12/24 05:31:16;;;;;;;;;;;;;;;;;;5114608;28;19985;-41
2023/12/24 05:33:42;;;;;;;;;;;;;;;;;;5114724;28;19928;-42
2023/12/24 05:36:09;;;;;;;;;;;;;;;;;;5114459;28;20370;-42
2023/12/24 05:38:35;;;;;;;;;;;;;;;;;;5112812;28;20392;-41
2023/12/24 05:41:01;;;;;;;;;;;;;;;;;;5113935;28;20031;-40
2023/12/24 05:43:27;;;;;;;;;;;;;;;;;;5114692;28;19924;-43
2023/12/24 05:45:53;;;;;;;;;;;;;;;;;;5114278;28;19946;-42
2023/12/24 05:48:19;;;;;;;;;;;;;;;;;;5114315;28;19928;-42
2023/12/24 05:50:45;;;;;;;;;;;;;;;;;;5114308;28;20455;-41
2023/12/24 05:53:12;;;;;;;;;;;;;;;;;;5114454;28;19938;-41
2023/12/24 05:55:40;;;;;;;;;;;;;;;;;;5113347;28;22316;-44
2023/12/24 05:58:07;;;;;;;;;;;;;;;;;;5114311;28;19923;-41
2023/12/24 06:00:34;;;;;;;;;;;;;;;;;;5114270;28;19951;-44
2023/12/24 06:03:03;;;;;;;;;;;;;;;;;;5113953;28;19931;-43
2023/12/24 06:05:29;;;;;;;;;;;;;;;;;;5114130;28;19923;-41
2023/12/24 06:07:55;;;;;;;;;;;;;;;;;;5114143;28;19924;-43
2023/12/24 06:10:21;;;;;;;;;;;;;;;;;;5113854;28;19963;-41
2023/12/24 06:12:51;;;;;;;;;;;;;;;;;;5114086;28;19977;-41
2023/12/24 06:15:18;;;;;;;;;;;;;;;;;;5113230;28;20295;-43
2023/12/24 06:17:44;;;;;;;;;;;;;;;;;;5113795;28;20337;-43
2023/12/24 06:20:10;;;;;;;;;;;;;;;;;;5113534;28;20295;-42
2023/12/24 06:22:37;;;;;;;;;;;;;;;;;;5113915;28;19924;-42
2023/12/24 06:25:03;;;;;;;;;;;;;;;;;;5113852;28;19928;-42
2023/12/24 06:27:29;;;;;;;;;;;;;;;;;;5113782;28;19923;-43
2023/12/24 06:29:55;;;;;;;;;;;;;;;;;;5113800;28;19924;-42
2023/12/24 06:32:21;;;;;;;;;;;;;;;;;;5113542;28;19973;-41
2023/12/24 06:34:47;;;;;;;;;;;;;;;;;;5113285;28;20496;-45
2023/12/24 06:37:13;;;;;;;;;;;;;;;;;;5112983;28;19985;-43
2023/12/24 06:39:40;;;;;;;;;;;;;;;;;;5112756;28;19988;-43
2023/12/24 06:42:06;;;;;;;;;;;;;;;;;;5113776;28;19924;-43
2023/12/24 06:44:33;;;;;;;;;;;;;;;;;;5113395;28;20279;-43
2023/12/24 06:46:59;;;;;;;;;;;;;;;;;;5113672;28;19924;-45
2023/12/24 06:49:25;;;;;;;;;;;;;;;;;;5113714;28;19931;-44
2023/12/24 06:51:51;;;;;;;;;;;;;;;;;;5113126;28;20363;-42
2023/12/24 06:54:17;;;;;;;;;;;;;;;;;;5113590;28;19927;-44
2023/12/24 06:56:43;;;;;;;;;;;;;;;;;;5113441;28;19924;-43
2023/12/24 06:59:10;;;;;;;;;;;;;;;;;;5113206;28;19928;-41
2023/12/24 07:01:36;;;;;;;;;;;;;;;;;;5113393;28;20356;-42
2023/12/24 07:04:02;;;;;;;;;;;;;;;;;;5113445;28;20356;-42
2023/12/24 07:06:28;;;;;;;;;;;;;;;;;;5112881;28;19924;-41
2023/12/24 07:08:54;;;;;;;;;;;;;;;;;;5113207;28;19980;-43
2023/12/24 07:11:20;;;;;;;;;;;;;;;;;;5113334;28;19967;-41
2023/12/24 07:13:46;;;;;;;;;;;;;;;;;;5113359;28;20009;-43
2023/12/24 07:16:13;;;;;;;;;;;;;;;;;;5112705;28;19931;-41
2023/12/24 07:18:39;;;;;;;;;;;;;;;;;;5113478;28;20253;-42
2023/12/24 07:21:05;;;;;;;;;;;;;;;;;;5113176;28;20286;-42
2023/12/24 07:23:31;;;;;;;;;;;;;;;;;;5113446;28;19931;-41
2023/12/24 07:25:57;;;;;;;;;;;;;;;;;;5113090;28;19923;-41
2023/12/24 07:28:23;;;;;;;;;;;;;;;;;;5113268;28;19976;-41
2023/12/24 07:30:49;;;;;;;;;;;;;;;;;;5113187;28;19944;-42
2023/12/24 07:33:16;;;;;;;;;;;;;;;;;;5113163;28;19923;-42
2023/12/24 07:35:42;;;;;;;;;;;;;;;;;;5112211;28;19927;-42
2023/12/24 07:38:08;;;;;;;;;;;;;;;;;;5113154;28;19924;-44
2023/12/24 07:40:35;;;;;;;;;;;;;;;;;;5112334;28;19930;-43
2023/12/24 07:43:02;;;;;;;;;;;;;;;;;;5112991;28;19924;-44
2023/12/24 07:45:28;;;;;;;;;;;;;;;;;;5112847;28;19928;-41
2023/12/24 07:47:54;;;;;;;;;;;;;;;;;;5113272;28;19935;-42
2023/12/24 07:50:21;;;;;;;;;;;;;;;;;;5116346;28;20418;-41
2023/12/24 07:52:47;;;;;;;;;;;;;;;;;;5116900;28;20283;-43
2023/12/24 07:55:13;;;;;;;;;;;;;;;;;;5116589;28;19932;-44
2023/12/24 07:57:39;;;;;;;;;;;;;;;;;;5116710;28;19927;-42
2023/12/24 08:00:06;;;;;;;;;;;;;;;;;;5116549;28;20440;-43
2023/12/24 08:02:32;;;;;;;;;;;;;;;;;;5116662;28;19969;-41
2023/12/24 08:04:59;;;;;;;;;;;;;;;;;;5116613;28;19970;-42
2023/12/24 08:07:25;;;;;;;;;;;;;;;;;;5116041;28;19977;-41
2023/12/24 08:09:51;;;;;;;;;;;;;;;;;;5116311;28;19947;-41
2023/12/24 08:12:17;;;;;;;;;;;;;;;;;;5116463;28;20330;-42
2023/12/24 08:14:44;;;;;;;;;;;;;;;;;;5116068;28;19932;-42
2023/12/24 08:17:10;;;;;;;;;;;;;;;;;;5115933;28;20333;-41
2023/12/24 08:19:36;;;;;;;;;;;;;;;;;;5116420;27;19927;-41
2023/12/24 08:22:02;;;;;;;;;;;;;;;;;;5116350;28;20356;-43
2023/12/24 08:24:29;;;;;;;;;;;;;;;;;;5115880;28;20413;-43
2023/12/24 08:26:55;;;;;;;;;;;;;;;;;;5116008;28;20964;-42
2023/12/24 08:29:21;;;;;;;;;;;;;;;;;;5115971;28;19924;-41
2023/12/24 08:31:47;;;;;;;;;;;;;;;;;;5115592;28;20363;-42
2023/12/24 08:34:13;;;;;;;;;;;;;;;;;;5115420;27;19931;-42
2023/12/24 08:36:40;;;;;;;;;;;;;;;;;;5114840;28;19923;-42
2023/12/24 08:39:06;;;;;;;;;;;;;;;;;;5115270;28;19950;-41
2023/12/24 08:41:32;;;;;;;;;;;;;;;;;;5114731;28;19924;-41
2023/12/24 08:43:58;;;;;;;;;;;;;;;;;;5113593;28;19933;-42
2023/12/24 08:46:24;;;;;;;;;;;;;;;;;;5115137;28;19963;-44
2023/12/24 08:48:50;;;;;;;;;;;;;;;;;;5115316;28;19989;-41
2023/12/24 08:51:17;;;;;;;;;;;;;;;;;;5115572;28;19924;-44
2023/12/24 08:53:43;;;;;;;;;;;;;;;;;;5115154;28;19928;-42
2023/12/24 08:56:09;;;;;;;;;;;;;;;;;;5115314;28;19924;-43
2023/12/24 08:58:35;;;;;;;;;;;;;;;;;;5115598;28;19931;-44
2023/12/24 09:01:01;;;;;;;;;;;;;;;;;;5114502;28;19924;-42
2023/12/24 09:03:27;;;;;;;;;;;;;;;;;;5115480;28;19923;-41
2023/12/24 09:05:54;;;;;;;;;;;;;;;;;;5115517;28;19978;-41
2023/12/24 09:08:20;;;;;;;;;;;;;;;;;;5115262;28;19928;-41
2023/12/24 09:10:46;;;;;;;;;;;;;;;;;;5114841;28;20446;-41
2023/12/24 09:13:12;;;;;;;;;;;;;;;;;;5114659;28;19928;-40
2023/12/24 09:15:39;;;;;;;;;;;;;;;;;;5114789;28;19977;-41
2023/12/24 09:18:05;;;;;;;;;;;;;;;;;;5115427;28;19924;-42
2023/12/24 09:20:31;;;;;;;;;;;;;;;;;;5115130;28;19930;-40
2023/12/24 09:22:57;;;;;;;;;;;;;;;;;;5115040;28;19924;-40
2023/12/24 09:25:24;;;;;;;;;;;;;;;;;;5114996;28;19988;-42
2023/12/24 09:27:50;;;;;;;;;;;;;;;;;;5114957;28;19923;-42
2023/12/24 09:30:16;;;;;;;;;;;;;;;;;;5115008;28;19924;-44
2023/12/24 09:32:43;;;;;;;;;;;;;;;;;;5114699;27;19924;-41
2023/12/24 09:35:09;;;;;;;;;;;;;;;;;;5114763;28;19976;-40
2023/12/24 09:37:35;;;;;;;;;;;;;;;;;;5114531;28;19931;-40
2023/12/24 09:40:01;;;;;;;;;;;;;;;;;;5114446;28;19924;-43
2023/12/24 09:42:27;;;;;;;;;;;;;;;;;;5114321;28;19924;-42
2023/12/24 09:44:54;;;;;;;;;;;;;;;;;;5113904;28;19997;-40
2023/12/24 09:47:20;;;;;;;;;;;;;;;;;;5114842;28;19990;-40
2023/12/24 09:49:46;;;;;;;;;;;;;;;;;;5114736;28;19923;-41
2023/12/24 09:52:14;;;;;;;;;;;;;;;;;;5114160;28;19924;-40
2023/12/24 09:54:40;;;;;;;;;;;;;;;;;;5114554;28;19973;-43
2023/12/24 09:57:07;;;;;;;;;;;;;;;;;;5114262;28;19949;-41
2023/12/24 09:59:33;;;;;;;;;;;;;;;;;;5114436;28;19954;-41
2023/12/24 10:01:59;;;;;;;;;;;;;;;;;;5114206;28;20383;-40
2023/12/24 10:04:25;;;;;;;;;;;;;;;;;;5114453;28;20429;-40
2023/12/24 10:06:52;;;;;;;;;;;;;;;;;;5114418;28;19938;-41
2023/12/24 10:09:18;;;;;;;;;;;;;;;;;;5113769;28;19924;-43
2023/12/24 10:11:44;;;;;;;;;;;;;;;;;;5113743;28;19927;-41
2023/12/24 10:14:10;;;;;;;;;;;;;;;;;;5114181;28;19924;-40
2023/12/24 10:16:36;;;;;;;;;;;;;;;;;;5113722;28;19924;-42
2023/12/24 10:19:02;;;;;;;;;;;;;;;;;;5113920;28;19978;-42
2023/12/24 10:21:29;;;;;;;;;;;;;;;;;;5113735;28;19924;-41
2023/12/24 10:23:55;;;;;;;;;;;;;;;;;;5114059;28;19927;-42
2023/12/24 10:26:23;;;;;;;;;;;;;;;;;;5113938;28;19988;-41
2023/12/24 10:28:49;;;;;;;;;;;;;;;;;;5113561;28;19934;-40
2023/12/24 10:31:20;;;;;;;;;;;;;;;;;;5113944;28;19924;-41
2023/12/24 10:33:46;;;;;;;;;;;;;;;;;;5113645;28;19959;-40
2023/12/24 10:36:13;;;;;;;;;;;;;;;;;;5113524;28;20010;-40
2023/12/24 10:38:39;;;;;;;;;;;;;;;;;;5113800;28;20275;-40
2023/12/24 10:41:06;;;;;;;;;;;;;;;;;;5112937;28;20454;-43
2023/12/24 10:43:32;;;;;;;;;;;;;;;;;;5113900;28;19923;-42
2023/12/24 10:45:58;;;;;;;;;;;;;;;;;;5113159;28;19969;-41
2023/12/24 10:48:24;;;;;;;;;;;;;;;;;;5113820;28;19981;-41
2023/12/24 10:50:51;;;;;;;;;;;;;;;;;;5113423;28;20398;-41
2023/12/24 10:53:17;;;;;;;;;;;;;;;;;;5113678;28;20367;-42
2023/12/24 10:55:43;;;;;;;;;;;;;;;;;;5113571;28;19923;-41
2023/12/24 10:58:09;;;;;;;;;;;;;;;;;;5113318;28;19923;-40
2023/12/24 11:00:35;;;;;;;;;;;;;;;;;;5113603;28;19924;-41
2023/12/24 11:03:02;;;;;;;;;;;;;;;;;;5113366;28;19935;-41
2023/12/24 11:05:28;;;;;;;;;;;;;;;;;;5113754;28;19949;-40
2023/12/24 11:07:54;;;;;;;;;;;;;;;;;;5113560;28;19946;-41
2023/12/24 11:10:20;;;;;;;;;;;;;;;;;;5113368;28;19924;-42
2023/12/24 11:12:46;;;;;;;;;;;;;;;;;;5113449;28;19989;-41
2023/12/24 11:15:22;;;;;;;;;;;;;;;;;;5113172;28;19970;-40
2023/12/24 11:17:49;;;;;;;;;;;;;;;;;;5113200;28;20294;-40
2023/12/24 11:20:16;;;;;;;;;;;;;;;;;;5113200;28;20386;-41
2023/12/24 11:22:42;;;;;;;;;;;;;;;;;;5113023;28;20360;-40
2023/12/24 11:25:08;;;;;;;;;;;;;;;;;;5115939;28;20399;-42
2023/12/24 11:27:34;;;;;;;;;;;;;;;;;;5116835;28;20371;-42
2023/12/24 11:30:04;;;;;;;;;;;;;;;;;;5116697;28;20375;-41
2023/12/24 11:32:32;;;;;;;;;;;;;;;;;;5116570;28;19924;-41
2023/12/24 11:34:58;;;;;;;;;;;;;;;;;;5116724;28;19962;-40
2023/12/24 11:37:25;;;;;;;;;;;;;;;;;;5117084;28;20206;-40
2023/12/24 11:39:51;;;;;;;;;;;;;;;;;;5116846;28;19932;-41
2023/12/24 11:42:17;;;;;;;;;;;;;;;;;;5116460;28;19935;-42
2023/12/24 11:44:43;;;;;;;;;;;;;;;;;;5116880;27;19927;-41
2023/12/24 11:47:09;;;;;;;;;;;;;;;;;;5116630;28;19931;-41
2023/12/24 11:49:36;;;;;;;;;;;;;;;;;;5116796;27;19973;-43
2023/12/24 11:52:02;;;;;;;;;;;;;;;;;;5116587;28;19946;-40
2023/12/24 11:54:28;;;;;;;;;;;;;;;;;;5116980;28;19976;-40
2023/12/24 11:56:54;;;;;;;;;;;;;;;;;;5116617;27;19984;-41
2023/12/24 11:59:22;;;;;;;;;;;;;;;;;;5116462;28;19931;-42
2023/12/24 12:01:48;;;;;;;;;;;;;;;;;;5116309;28;19924;-40
2023/12/24 12:04:14;;;;;;;;;;;;;;;;;;5116841;28;19924;-40
2023/12/24 12:06:41;;;;;;;;;;;;;;;;;;5116668;28;19931;-41
2023/12/24 12:09:10;;;;;;;;;;;;;;;;;;5115819;28;19986;-40
2023/12/24 12:11:36;;;;;;;;;;;;;;;;;;5116125;28;19935;-40
2023/12/24 12:14:02;;;;;;;;;;;;;;;;;;5115834;28;19924;-40
2023/12/24 12:16:28;;;;;;;;;;;;;;;;;;5115705;28;19927;-40
2023/12/24 12:18:55;;;;;;;;;;;;;;;;;;5115655;28;19930;-41
2023/12/24 12:21:21;;;;;;;;;;;;;;;;;;5115787;28;19923;-41
2023/12/24 12:23:47;;;;;;;;;;;;;;;;;;5115973;28;19924;-41
2023/12/24 12:26:13;;;;;;;;;;;;;;;;;;5115908;28;19928;-42
2023/12/24 12:28:39;;;;;;;;;;;;;;;;;;5116149;28;19934;-43
2023/12/24 12:31:06;;;;;;;;;;;;;;;;;;5115706;28;19980;-40
2023/12/24 12:33:32;;;;;;;;;;;;;;;;;;5115495;28;20276;-41
2023/12/24 12:35:58;;;;;;;;;;;;;;;;;;5114991;28;19924;-42
2023/12/24 12:38:24;;;;;;;;;;;;;;;;;;5115709;28;19923;-42
2023/12/24 12:40:50;;;;;;;;;;;;;;;;;;5115921;28;19967;-42
2023/12/24 12:43:17;;;;;;;;;;;;;;;;;;5114948;28;19924;-41
2023/12/24 12:45:43;;;;;;;;;;;;;;;;;;5113910;28;19928;-43
2023/12/24 12:48:09;;;;;;;;;;;;;;;;;;5115829;28;19973;-41
2023/12/24 12:50:36;;;;;;;;;;;;;;;;;;5114927;28;20015;-42
2023/12/24 12:53:02;;;;;;;;;;;;;;;;;;5115581;28;19927;-43
2023/12/24 12:55:28;;;;;;;;;;;;;;;;;;5115855;28;20360;-40
2023/12/24 12:57:54;;;;;;;;;;;;;;;;;;5115442;28;20314;-41
2023/12/24 13:00:20;;;;;;;;;;;;;;;;;;5115685;28;20244;-42
2023/12/24 13:02:47;;;;;;;;;;;;;;;;;;5115607;28;19973;-42
2023/12/24 13:05:13;;;;;;;;;;;;;;;;;;5115559;28;20409;-42
2023/12/24 13:07:39;;;;;;;;;;;;;;;;;;5115633;28;19979;-41
2023/12/24 13:10:05;;;;;;;;;;;;;;;;;;5115346;28;19955;-41
2023/12/24 13:12:31;;;;;;;;;;;;;;;;;;5115086;28;19924;-41
2023/12/24 13:14:57;;;;;;;;;;;;;;;;;;5114820;28;19939;-45
2023/12/24 13:17:24;;;;;;;;;;;;;;;;;;5115222;28;19924;-41
2023/12/24 13:19:50;;;;;;;;;;;;;;;;;;5115140;28;19963;-41
2023/12/24 13:22:16;;;;;;;;;;;;;;;;;;5115164;28;19928;-43
2023/12/24 13:24:43;;;;;;;;;;;;;;;;;;5114860;28;19924;-41
2023/12/24 13:27:09;;;;;;;;;;;;;;;;;;5115026;28;19930;-43
2023/12/24 13:29:35;;;;;;;;;;;;;;;;;;5115146;28;19977;-41
2023/12/24 13:32:01;;;;;;;;;;;;;;;;;;5115161;28;19931;-42
2023/12/24 13:34:27;;;;;;;;;;;;;;;;;;5114647;28;19924;-41
2023/12/24 13:36:54;;;;;;;;;;;;;;;;;;5115079;28;19923;-43
2023/12/24 13:39:20;;;;;;;;;;;;;;;;;;5114630;28;19924;-42
2023/12/24 13:41:46;;;;;;;;;;;;;;;;;;5114925;28;20431;-40
2023/12/24 13:44:13;;;;;;;;;;;;;;;;;;5114776;28;19928;-40
2023/12/24 13:46:40;;;;;;;;;;;;;;;;;;5113534;28;19962;-43
2023/12/24 13:49:09;;;;;;;;;;;;;;;;;;5114447;28;20488;-42
2023/12/24 13:51:37;;;;;;;;;;;;;;;;;;5114031;28;19972;-43
2023/12/24 13:54:03;;;;;;;;;;;;;;;;;;5114674;28;19969;-43
2023/12/24 13:56:29;;;;;;;;;;;;;;;;;;5114590;28;19924;-44
2023/12/24 13:58:55;;;;;;;;;;;;;;;;;;5114368;28;20398;-41
2023/12/24 14:01:22;;;;;;;;;;;;;;;;;;5114457;28;19927;-42
2023/12/24 14:03:48;;;;;;;;;;;;;;;;;;5114456;28;19969;-42
2023/12/24 14:06:14;;;;;;;;;;;;;;;;;;5114564;28;19924;-44
2023/12/24 14:08:41;;;;;;;;;;;;;;;;;;5114441;28;19967;-41
2023/12/24 14:11:09;;;;;;;;;;;;;;;;;;5113880;28;19973;-41
2023/12/24 14:13:35;;;;;;;;;;;;;;;;;;5113809;28;20321;-42
2023/12/24 14:16:02;;;;;;;;;;;;;;;;;;5113684;28;20301;-40
2023/12/24 14:18:29;;;;;;;;;;;;;;;;;;5114082;27;19923;-41
2023/12/24 14:20:55;;;;;;;;;;;;;;;;;;5114056;28;19973;-41
2023/12/24 14:23:21;;;;;;;;;;;;;;;;;;5113897;28;19924;-41
2023/12/24 14:25:47;;;;;;;;;;;;;;;;;;5114067;28;19924;-41
2023/12/24 14:28:14;;;;;;;;;;;;;;;;;;5114154;28;19924;-40
2023/12/24 14:30:40;;;;;;;;;;;;;;;;;;5114074;28;19923;-42
2023/12/24 14:33:06;;;;;;;;;;;;;;;;;;5113965;28;20451;-42
2023/12/24 14:35:33;;;;;;;;;;;;;;;;;;5113670;28;20395;-42
2023/12/24 14:37:59;;;;;;;;;;;;;;;;;;5113487;28;19982;-42
2023/12/24 14:40:25;;;;;;;;;;;;;;;;;;5113531;28;19949;-41
2023/12/24 14:42:52;;;;;;;;;;;;;;;;;;5113736;28;20279;-42
2023/12/24 14:45:18;;;;;;;;;;;;;;;;;;5112046;28;19930;-42
2023/12/24 14:47:44;;;;;;;;;;;;;;;;;;5112744;28;19977;-41
2023/12/24 14:50:11;;;;;;;;;;;;;;;;;;5112257;28;19931;-43
2023/12/24 14:52:37;;;;;;;;;;;;;;;;;;5112529;28;20380;-40
2023/12/24 14:55:03;;;;;;;;;;;;;;;;;;5113239;28;19973;-41
2023/12/24 14:57:30;;;;;;;;;;;;;;;;;;5113247;28;19963;-41
2023/12/24 14:59:57;;;;;;;;;;;;;;;;;;5112486;28;20379;-40
2023/12/24 15:02:24;;;;;;;;;;;;;;;;;;5113679;28;19969;-43
2023/12/24 15:04:51;;;;;;;;;;;;;;;;;;5113168;28;19969;-42
2023/12/24 15:07:17;;;;;;;;;;;;;;;;;;5112862;28;19976;-42
2023/12/24 15:09:44;;;;;;;;;;;;;;;;;;5112557;28;20305;-40
2023/12/24 15:12:10;;;;;;;;;;;;;;;;;;5113413;28;19923;-41
2023/12/24 15:14:36;;;;;;;;;;;;;;;;;;5113000;28;19977;-43
2023/12/24 15:17:02;;;;;;;;;;;;;;;;;;5113378;28;19930;-42
2023/12/24 15:19:29;;;;;;;;;;;;;;;;;;5113104;28;19977;-41
2023/12/24 15:21:55;;;;;;;;;;;;;;;;;;5113037;28;19932;-41
2023/12/24 15:24:21;;;;;;;;;;;;;;;;;;5113232;28;20326;-41
2023/12/24 15:26:47;;;;;;;;;;;;;;;;;;5112985;28;19973;-41
2023/12/24 15:29:14;;;;;;;;;;;;;;;;;;5112782;28;20027;-40
2023/12/24 15:31:40;;;;;;;;;;;;;;;;;;5113198;28;19930;-41
2023/12/24 15:34:06;;;;;;;;;;;;;;;;;;5113302;28;20291;-41
2023/12/24 15:36:32;;;;;;;;;;;;;;;;;;5113326;28;19924;-42
2023/12/24 15:38:59;;;;;;;;;;;;;;;;;;5112547;28;19969;-42
2023/12/24 15:41:25;;;;;;;;;;;;;;;;;;5113325;28;19931;-42
2023/12/24 15:43:51;;;;;;;;;;;;;;;;;;5112992;28;19924;-40
2023/12/24 15:46:17;;;;;;;;;;;;;;;;;;5112801;28;19928;-43
2023/12/24 15:48:44;;;;;;;;;;;;;;;;;;5113248;28;19954;-41
2023/12/24 15:51:10;;;;;;;;;;;;;;;;;;5112977;28;19924;-42
2023/12/24 15:53:36;;;;;;;;;;;;;;;;;;5113169;28;19924;-41
2023/12/24 15:56:02;;;;;;;;;;;;;;;;;;5113296;28;20364;-42
2023/12/24 15:58:29;;;;;;;;;;;;;;;;;;5113154;28;19977;-45
2023/12/24 16:00:55;;;;;;;;;;;;;;;;;;5113002;28;20317;-41
2023/12/24 16:03:21;;;;;;;;;;;;;;;;;;5113243;28;19928;-43
2023/12/24 16:05:47;;;;;;;;;;;;;;;;;;5112864;28;19928;-40
2023/12/24 16:08:14;;;;;;;;;;;;;;;;;;5112557;28;20366;-42
2023/12/24 16:10:40;;;;;;;;;;;;;;;;;;5114231;28;19927;-41
2023/12/24 16:13:06;;;;;;;;;;;;;;;;;;5116414;28;19923;-41
2023/12/24 16:15:32;;;;;;;;;;;;;;;;;;5115897;28;19923;-40
2023/12/24 16:18:01;;;;;;;;;;;;;;;;;;5116419;27;20339;-41
2023/12/24 16:20:28;;;;;;;;;;;;;;;;;;5116321;28;19928;-41
2023/12/24 16:22:54;;;;;;;;;;;;;;;;;;5116379;28;19981;-41
2023/12/24 16:25:20;;;;;;;;;;;;;;;;;;5116341;28;19977;-43
2023/12/24 16:27:47;;;;;;;;;;;;;;;;;;5116294;27;19928;-41
2023/12/24 16:30:13;;;;;;;;;;;;;;;;;;5116101;28;19928;-41
2023/12/24 16:32:39;;;;;;;;;;;;;;;;;;5116374;28;19924;-41
2023/12/24 16:35:05;;;;;;;;;;;;;;;;;;5115777;28;20389;-42
2023/12/24 16:37:31;;;;;;;;;;;;;;;;;;5116090;28;19980;-40
2023/12/24 16:39:58;;;;;;;;;;;;;;;;;;5115168;28;19977;-41